Time;durP1;ratioP1;P1;durP2;ratioP2;P2;SDS_P1;SDS_P2;PMS_P1;PMS_P2;Temp;Humidity;BMP_temperature;BMP_pressure;BME280_temperature;BME280_humidity;BME280_pressure;Samples;Min_cycle;Max_cycle;Signal;HPM_P1;HPM_P2
2022/05/05 00:01:29;;;;;;;26.15;13.50;;;;;;;10.95;65.71;101872.44;5072098;28;20071;-56
2022/05/05 00:03:55;;;;;;;26.13;13.18;;;;;;;10.93;65.68;101874.63;5072219;28;20049;-56
2022/05/05 00:06:21;;;;;;;25.00;12.90;;;;;;;10.88;66.04;101875.50;5072044;28;20033;-56
2022/05/05 00:08:46;;;;;;;27.23;14.00;;;;;;;10.83;66.27;101871.91;5072284;28;20103;-57
2022/05/05 00:16:40;;;;;;;25.17;13.38;;;;;;;10.77;66.40;101882.16;5071959;28;20086;-55
2022/05/05 00:19:05;;;;;;;27.48;13.73;;;;;;;10.81;66.39;101874.97;5071899;28;20107;-56
2022/05/05 00:21:30;;;;;;;25.17;12.80;;;;;;;10.87;66.35;101875.75;5071938;28;20036;-56
2022/05/05 00:23:56;;;;;;;23.92;12.98;;;;;;;10.94;66.66;101879.06;5071851;28;20028;-55
2022/05/05 00:26:21;;;;;;;25.38;12.80;;;;;;;10.92;66.67;101872.97;5071526;28;20044;-55
2022/05/05 00:28:46;;;;;;;26.95;14.52;;;;;;;11.01;65.85;101874.03;5071696;28;20438;-54
2022/05/05 00:31:12;;;;;;;27.38;13.98;;;;;;;11.03;65.21;101882.06;5071601;28;20033;-55
2022/05/05 00:33:37;;;;;;;26.70;14.15;;;;;;;10.99;65.27;101879.03;5071815;28;20040;-56
2022/05/05 00:36:03;;;;;;;27.67;13.52;;;;;;;10.98;65.27;101876.56;5071904;28;20123;-56
2022/05/05 00:38:28;;;;;;;25.17;13.13;;;;;;;11.01;65.11;101875.97;5071716;28;20528;-55
2022/05/05 00:40:53;;;;;;;27.13;14.68;;;;;;;10.97;65.36;101883.19;5071770;28;20513;-56
2022/05/05 00:43:19;;;;;;;25.70;13.50;;;;;;;10.93;65.04;101878.22;5071355;28;20482;-56
2022/05/05 00:45:44;;;;;;;25.83;13.77;;;;;;;10.87;65.50;101878.53;5075313;28;20024;-55
2022/05/05 00:48:12;;;;;;;26.45;14.48;;;;;;;10.80;65.82;101873.31;5075581;28;20035;-56
2022/05/05 00:50:37;;;;;;;26.02;13.85;;;;;;;10.80;65.90;101869.69;5076081;28;20135;-57
2022/05/05 00:53:04;;;;;;;27.52;14.57;;;;;;;10.73;66.57;101861.69;5075597;28;20094;-55
2022/05/05 00:55:35;;;;;;;27.10;14.23;;;;;;;10.70;66.74;101865.84;5075718;28;20032;-55
2022/05/05 00:58:03;;;;;;;25.85;14.13;;;;;;;10.57;66.58;101853.44;5075449;28;20073;-55
2022/05/05 01:00:29;;;;;;;28.13;14.10;;;;;;;10.59;66.84;101867.84;5075131;28;20101;-55
2022/05/05 01:02:57;;;;;;;26.10;14.07;;;;;;;10.52;67.53;101870.06;5075432;28;20439;-55
2022/05/05 01:05:24;;;;;;;27.50;13.98;;;;;;;10.47;67.46;101864.53;5075169;28;20024;-56
2022/05/05 01:07:49;;;;;;;27.48;13.25;;;;;;;10.42;67.02;101865.38;5075438;28;20382;-56
2022/05/05 01:10:15;;;;;;;27.15;14.43;;;;;;;10.37;66.95;101865.41;5075263;28;20468;-55
2022/05/05 01:12:40;;;;;;;26.25;14.05;;;;;;;10.34;66.88;101863.16;5075244;28;20077;-55
2022/05/05 01:15:06;;;;;;;25.52;14.43;;;;;;;10.25;67.47;101865.66;5075039;28;20438;-55
2022/05/05 01:17:32;;;;;;;26.08;14.80;;;;;;;10.24;67.96;101877.00;5075383;28;20029;-55
2022/05/05 01:20:11;;;;;;;25.13;14.52;;;;;;;10.11;68.27;101861.81;5075163;28;20085;-56
2022/05/05 01:22:37;;;;;;;28.10;13.80;;;;;;;10.12;69.49;101874.53;5074934;28;20029;-55
2022/05/05 01:30:30;;;;;;;25.05;14.18;;;;;;;9.96;70.20;101866.25;5075354;28;20039;-56
2022/05/05 01:32:55;;;;;;;26.00;14.38;;;;;;;9.93;70.54;101869.56;5074870;28;20025;-55
2022/05/05 01:35:21;;;;;;;25.48;13.77;;;;;;;9.88;70.65;101869.56;5075086;28;20098;-54
2022/05/05 01:37:47;;;;;;;25.70;14.20;;;;;;;9.82;71.06;101870.66;5074785;28;20444;-55
2022/05/05 01:40:12;;;;;;;26.60;14.85;;;;;;;9.77;70.90;101870.69;5074729;28;20032;-55
2022/05/05 01:42:38;;;;;;;26.83;14.77;;;;;;;9.73;70.51;101872.31;5074906;28;20021;-55
2022/05/05 01:45:04;;;;;;;27.10;14.57;;;;;;;9.67;70.95;101871.47;5074620;28;20024;-55
2022/05/05 01:47:30;;;;;;;25.88;14.05;;;;;;;9.60;70.99;101865.41;5074578;28;20029;-56
2022/05/05 01:49:59;;;;;;;28.13;15.35;;;;;;;9.55;70.76;101871.75;5074809;28;20150;-55
2022/05/05 01:52:25;;;;;;;26.80;14.07;;;;;;;9.51;71.86;101873.38;5074525;28;20028;-55
2022/05/05 01:54:50;;;;;;;24.52;14.63;;;;;;;9.43;71.83;101869.25;5074092;28;20478;-56
2022/05/05 01:57:15;;;;;;;26.00;14.32;;;;;;;9.38;72.54;101873.94;5074486;28;20028;-56
2022/05/05 01:59:40;;;;;;;25.70;14.32;;;;;;;9.35;72.41;101875.31;5074473;28;20486;-56
2022/05/05 02:02:06;;;;;;;25.67;14.48;;;;;;;9.33;72.67;101875.56;5074493;28;20040;-56
2022/05/05 02:04:31;;;;;;;25.52;14.88;;;;;;;9.28;73.00;101867.28;5074289;28;20033;-56
2022/05/05 02:06:56;;;;;;;26.13;14.20;;;;;;;9.24;73.00;101874.44;5074233;28;20089;-58
2022/05/05 02:09:22;;;;;;;26.48;14.75;;;;;;;9.20;74.21;101870.56;5074267;28;20035;-55
2022/05/05 02:11:47;;;;;;;25.35;14.48;;;;;;;9.15;74.03;101879.69;5074132;28;20040;-55
2022/05/05 02:14:12;;;;;;;28.08;13.98;;;;;;;9.13;74.72;101881.88;5074152;28;20071;-55
2022/05/05 02:16:37;;;;;;;24.88;14.35;;;;;;;9.08;75.17;101881.03;5074450;28;20025;-55
2022/05/05 02:19:03;;;;;;;25.50;13.80;;;;;;;9.03;75.43;101881.81;5074234;28;20116;-55
2022/05/05 02:21:28;;;;;;;25.75;14.85;;;;;;;8.98;75.63;101881.78;5073892;28;20467;-56
2022/05/05 02:23:53;;;;;;;26.05;15.52;;;;;;;8.93;75.38;101879.84;5073804;28;20105;-55
2022/05/05 02:26:18;;;;;;;24.63;14.68;;;;;;;8.90;75.33;101874.88;5079297;22;20064;-50
2022/05/05 02:28:44;;;;;;;25.95;14.15;;;;;;;8.83;76.25;101877.88;5054260;28;20060;-51
2022/05/05 02:31:09;;;;;;;24.65;14.45;;;;;;;8.80;76.66;101880.34;5054121;28;20554;-52
2022/05/05 02:33:34;;;;;;;25.23;14.38;;;;;;;8.78;76.76;101885.31;5053942;28;20021;-49
2022/05/05 02:38:43;;;;;;;24.77;13.98;;;;;;;8.68;77.23;101877.81;5054034;28;20040;-50
2022/05/05 02:41:09;;;;;;;25.63;14.40;;;;;;;8.60;77.61;101886.59;5054212;28;20429;-52
2022/05/05 02:43:34;;;;;;;25.67;14.18;;;;;;;8.47;78.91;101882.34;5054050;28;20041;-51
2022/05/05 02:46:00;;;;;;;29.85;16.05;;;;;;;8.40;79.37;101888.94;5054232;28;20091;-52
2022/05/05 02:48:25;;;;;;;26.23;14.70;;;;;;;8.35;79.76;101891.66;5053929;28;20121;-48
2022/05/05 02:50:50;;;;;;;26.52;14.82;;;;;;;8.32;79.52;101891.34;5053923;28;20036;-50
2022/05/05 02:55:59;;;;;;;;;;;;;;;8.36;76.74;101898.00;5054363;28;20075;-48
2022/05/05 02:58:27;;;;;;;25.23;14.90;;;;;;;8.33;79.07;101899.38;5054096;28;20287;-51
2022/05/05 03:00:52;;;;;;;26.00;14.68;;;;;;;8.35;79.73;101888.06;5053860;28;20055;-51
2022/05/05 03:03:17;;;;;;;24.15;14.43;;;;;;;8.37;79.30;101897.72;5053598;28;20021;-50
2022/05/05 03:05:43;;;;;;;26.42;14.40;;;;;;;8.41;78.71;101898.00;5054030;28;20033;-48
2022/05/05 03:08:08;;;;;;;25.55;14.60;;;;;;;8.45;78.84;101890.06;5053290;28;20100;-51
2022/05/05 03:10:33;;;;;;;25.85;13.82;;;;;;;8.48;78.99;101895.06;5053612;28;20472;-51
2022/05/05 03:12:59;;;;;;;27.17;14.80;;;;;;;8.47;79.86;101885.97;5053191;28;20029;-51
2022/05/05 03:15:24;;;;;;;25.02;14.40;;;;;;;8.49;79.37;101891.22;5053436;28;20112;-51
2022/05/05 03:17:50;;;;;;;28.15;15.05;;;;;;;8.45;79.16;101893.63;5053518;28;20032;-52
2022/05/05 03:20:15;;;;;;;23.98;14.32;;;;;;;8.43;79.33;101891.16;5053693;28;20061;-51
2022/05/05 03:22:41;;;;;;;26.23;14.35;;;;;;;8.47;78.76;101893.38;5053412;28;20036;-51
2022/05/05 03:25:06;;;;;;;25.85;14.32;;;;;;;8.47;78.69;101890.59;5053200;28;20388;-48
2022/05/05 03:27:35;;;;;;;24.80;14.48;;;;;;;8.40;78.82;101882.59;5053506;28;20127;-49
2022/05/05 03:30:01;;;;;;;26.27;15.18;;;;;;;8.47;78.63;101899.75;5053498;28;20032;-48
2022/05/05 03:32:26;;;;;;;25.50;14.68;;;;;;;8.45;78.99;101888.13;5053090;28;20021;-50
2022/05/05 03:34:51;;;;;;;25.58;14.60;;;;;;;8.50;79.36;101898.38;5052933;28;20097;-51
2022/05/05 03:37:16;;;;;;;24.25;14.27;;;;;;;8.51;79.13;101900.88;5051809;28;20029;-49
2022/05/05 03:39:42;;;;;;;27.02;15.27;;;;;;;8.51;79.61;101902.81;5053155;28;20067;-47
2022/05/05 03:42:07;;;;;;;25.52;14.73;;;;;;;8.47;80.33;101902.53;5053308;28;20045;-47
2022/05/05 03:44:32;;;;;;;25.08;14.38;;;;;;;8.43;80.72;101902.19;5053003;28;20136;-48
2022/05/05 03:46:58;;;;;;;27.65;15.02;;;;;;;8.36;80.69;101904.31;5053125;28;20096;-50
2022/05/05 03:49:23;;;;;;;25.17;15.30;;;;;;;8.38;80.44;101904.09;5051484;28;20170;-51
2022/05/05 03:51:49;;;;;;;24.40;14.45;;;;;;;8.39;80.48;101909.31;5053160;28;20033;-48
2022/05/05 03:54:14;;;;;;;26.08;15.38;;;;;;;8.41;80.41;101907.13;5052610;28;20344;-50
2022/05/05 03:56:39;;;;;;;24.85;14.32;;;;;;;8.45;80.22;101904.66;5052414;28;20036;-52
2022/05/05 03:59:04;;;;;;;27.25;14.48;;;;;;;8.44;80.07;101916.81;5052466;28;20074;-47
2022/05/05 04:01:30;;;;;;;25.73;14.48;;;;;;;8.42;80.71;101914.31;5051499;28;20025;-48
2022/05/05 04:03:55;;;;;;;25.73;15.45;;;;;;;8.36;81.20;101912.59;5052663;28;20490;-49
2022/05/05 04:06:20;;;;;;;27.42;16.13;;;;;;;8.27;81.85;101912.28;5053079;28;20028;-50
2022/05/05 04:08:45;;;;;;;27.63;15.98;;;;;;;8.24;82.12;101918.31;5053330;28;20029;-49
2022/05/05 04:11:11;;;;;;;27.33;15.90;;;;;;;8.25;82.01;101917.22;5053000;28;20029;-49
2022/05/05 04:13:36;;;;;;;27.17;16.30;;;;;;;8.24;82.08;101921.06;5052997;28;20039;-47
2022/05/05 04:16:02;;;;;;;28.42;16.25;;;;;;;8.20;82.91;101925.47;5052861;28;20100;-48
2022/05/05 04:18:27;;;;;;;28.65;16.27;;;;;;;8.18;83.02;101927.66;5052774;28;20032;-49
2022/05/05 04:20:53;;;;;;;28.75;16.73;;;;;;;8.19;82.18;101929.31;5052473;28;20116;-48
2022/05/05 04:23:18;;;;;;;27.92;16.35;;;;;;;8.23;82.59;101929.59;5052538;28;20035;-51
2022/05/05 04:25:44;;;;;;;27.20;16.48;;;;;;;8.27;82.53;101933.47;5052641;28;20057;-49
2022/05/05 04:28:11;;;;;;;26.20;16.20;;;;;;;8.27;82.96;101931.56;5052976;28;20057;-52
2022/05/05 04:30:39;;;;;;;26.75;16.33;;;;;;;8.32;82.67;101935.44;5052837;28;20039;-50
2022/05/05 04:33:05;;;;;;;30.52;16.60;;;;;;;8.36;82.71;101942.94;5051077;28;20037;-51
2022/05/05 04:35:30;;;;;;;28.23;16.05;;;;;;;8.39;82.05;101945.16;5052490;28;20108;-51
2022/05/05 04:37:56;;;;;;;27.77;15.90;;;;;;;8.47;81.96;101935.63;5052644;28;20039;-52
2022/05/05 04:40:21;;;;;;;27.50;16.40;;;;;;;8.49;81.52;101944.47;5050848;28;20029;-52
2022/05/05 04:42:46;;;;;;;26.98;15.55;;;;;;;8.55;81.34;101946.16;5052007;28;20028;-52
2022/05/05 04:45:12;;;;;;;28.38;16.17;;;;;;;8.60;81.83;101947.28;5052226;28;20037;-49
2022/05/05 04:47:37;;;;;;;28.00;17.02;;;;;;;8.61;82.40;101940.66;5051584;28;20029;-50
2022/05/05 04:50:04;;;;;;;31.48;15.98;;;;;;;8.63;82.06;101949.50;5050325;28;20054;-49
2022/05/05 04:52:31;;;;;;;27.08;16.33;;;;;;;8.67;81.71;101954.22;5051801;28;20025;-50
2022/05/05 04:54:57;;;;;;;29.77;17.10;;;;;;;8.71;81.43;101957.25;5052040;28;20025;-52
2022/05/05 04:57:22;;;;;;;29.85;17.40;;;;;;;8.75;81.92;101963.94;5051983;28;20089;-49
2022/05/05 04:59:47;;;;;;;28.45;17.15;;;;;;;8.80;81.71;101963.94;5052245;28;20104;-49
2022/05/05 05:02:12;;;;;;;28.80;16.88;;;;;;;8.83;81.55;101963.41;5052157;28;20025;-50
2022/05/05 05:04:38;;;;;;;30.75;17.23;;;;;;;8.84;81.41;101955.97;5051902;28;20094;-51
2022/05/05 05:07:03;;;;;;;30.80;17.25;;;;;;;8.89;81.08;101962.34;5050531;28;20029;-49
2022/05/05 05:09:29;;;;;;;31.45;17.90;;;;;;;8.98;81.22;101961.84;5051765;28;20025;-50
2022/05/05 05:11:54;;;;;;;28.33;16.45;;;;;;;9.09;81.13;101954.44;5051843;28;20102;-52
2022/05/05 05:14:19;;;;;;;31.92;17.40;;;;;;;9.10;81.26;101959.69;5051818;28;20021;-49
2022/05/05 05:16:45;;;;;;;28.58;17.10;;;;;;;9.15;81.05;101962.50;5050518;28;20021;-52
2022/05/05 05:19:10;;;;;;;34.72;18.40;;;;;;;9.18;80.74;101961.13;5051865;28;20039;-50
2022/05/05 05:21:35;;;;;;;30.50;18.45;;;;;;;9.23;81.34;101961.13;5051928;28;20025;-52
2022/05/05 05:24:02;;;;;;;30.63;18.52;;;;;;;9.27;80.85;101961.41;5051895;28;20064;-51
2022/05/05 05:26:28;;;;;;;33.63;19.00;;;;;;;9.26;81.18;101974.41;5051722;28;20080;-49
2022/05/05 05:28:53;;;;;;;33.50;19.75;;;;;;;9.20;81.42;101965.28;5051775;28;20434;-52
2022/05/05 05:31:19;;;;;;;33.22;18.85;;;;;;;9.18;81.84;101972.16;5054167;28;20440;-50
2022/05/05 05:33:45;;;;;;;33.50;20.08;;;;;;;9.18;81.42;101975.75;5053879;28;20025;-52
2022/05/05 05:36:10;;;;;;;30.50;18.50;;;;;;;9.24;81.50;101973.84;5055489;28;20037;-50
2022/05/05 05:38:35;;;;;;;30.65;19.15;;;;;;;9.31;80.84;101974.41;5055443;28;20036;-50
2022/05/05 05:41:01;;;;;;;32.28;19.67;;;;;;;9.42;80.24;101978.06;5055381;28;20025;-52
2022/05/05 05:43:27;;;;;;;32.65;19.67;;;;;;;9.48;80.48;101982.50;5055190;28;20040;-51
2022/05/05 05:45:52;;;;;;;32.63;19.77;;;;;;;9.49;80.26;101977.81;5055305;28;20028;-52
2022/05/05 05:48:17;;;;;;;32.38;21.02;;;;;;;9.52;79.73;101989.16;5055146;28;20028;-50
2022/05/05 05:50:43;;;;;;;35.47;21.27;;;;;;;9.48;79.65;101976.16;5055319;28;20021;-50
2022/05/05 05:53:08;;;;;;;32.60;20.08;;;;;;;9.58;79.80;101986.41;5053984;28;20036;-51
2022/05/05 05:55:34;;;;;;;33.67;20.30;;;;;;;9.63;78.33;101987.25;5055213;28;20029;-48
2022/05/05 05:57:59;;;;;;;30.77;20.90;;;;;;;9.70;78.42;101987.00;5054914;28;20028;-51
2022/05/05 06:00:25;;;;;;;30.88;19.70;;;;;;;9.86;78.62;101989.78;5055171;28;20031;-51
2022/05/05 06:05:34;;;;;;;32.95;20.20;;;;;;;10.23;76.95;101989.56;5055759;28;20114;-50
2022/05/05 06:08:01;;;;;;;29.35;19.02;;;;;;;10.40;75.55;101989.31;5055067;28;20085;-48
2022/05/05 06:10:27;;;;;;;32.60;20.23;;;;;;;10.56;74.72;101987.38;5054940;28;20021;-49
2022/05/05 06:12:53;;;;;;;34.13;20.10;;;;;;;10.69;74.49;101994.28;5055009;28;20457;-49
2022/05/05 06:15:19;;;;;;;32.00;20.67;;;;;;;10.83;74.14;101999.25;5054356;28;20103;-51
2022/05/05 06:17:44;;;;;;;30.92;19.67;;;;;;;10.99;73.28;102002.81;5054241;28;20056;-51
2022/05/05 06:20:10;;;;;;;30.00;19.15;;;;;;;11.15;71.44;101992.50;5054631;28;20443;-51
2022/05/05 06:22:37;;;;;;;28.92;18.38;;;;;;;11.37;70.51;101992.16;5052852;28;20391;-52
2022/05/05 06:25:03;;;;;;;31.15;19.13;;;;;;;11.53;68.23;101995.69;5052881;28;20029;-52
2022/05/05 06:27:28;;;;;;;29.23;17.35;;;;;;;11.71;68.22;101992.25;5054137;28;20063;-51
2022/05/05 06:29:54;;;;;;;29.08;17.17;;;;;;;11.89;66.71;101989.13;5054357;28;20029;-50
2022/05/05 06:32:19;;;;;;;27.27;16.23;;;;;;;12.09;65.85;101999.28;5053992;28;20356;-50
2022/05/05 06:34:44;;;;;;;28.58;16.50;;;;;;;12.30;65.49;101994.41;5054052;28;20025;-53
2022/05/05 06:37:10;;;;;;;30.17;16.13;;;;;;;12.48;63.98;102002.03;5053865;28;20032;-52
2022/05/05 06:39:35;;;;;;;30.73;15.63;;;;;;;12.72;62.80;101997.66;5053887;28;20029;-52
2022/05/05 06:42:01;;;;;;;28.30;15.68;;;;;;;12.89;59.58;101999.97;5052825;28;20040;-51
2022/05/05 06:44:27;;;;;;;28.05;16.15;;;;;;;13.10;60.19;102000.59;5053523;28;20032;-52
2022/05/05 06:46:52;;;;;;;26.80;15.43;;;;;;;13.32;59.30;102002.00;5053889;28;20112;-55
2022/05/05 06:49:18;;;;;;;28.10;15.93;;;;;;;13.50;59.08;102004.03;5053850;28;20035;-53
2022/05/05 06:51:43;;;;;;;28.67;16.77;;;;;;;13.63;57.91;102005.25;5053953;28;20021;-52
2022/05/05 06:54:09;;;;;;;28.50;17.42;;;;;;;13.72;57.70;102000.66;5053971;28;20055;-51
2022/05/05 06:56:34;;;;;;;28.40;16.85;;;;;;;13.89;58.04;101997.34;5053976;28;20052;-50
2022/05/05 06:58:59;;;;;;;30.25;17.88;;;;;;;14.00;57.58;101994.41;5053811;28;20166;-51
2022/05/05 07:06:53;;;;;;;30.30;18.10;;;;;;;14.48;56.22;102008.13;5053793;28;19981;-50
2022/05/05 07:12:03;;;;;;;32.65;19.05;;;;;;;14.66;56.04;102023.19;5053636;28;20136;-51
2022/05/05 07:14:29;;;;;;;33.83;19.75;;;;;;;14.70;56.16;102022.53;5053511;28;20067;-51
2022/05/05 07:16:54;;;;;;;31.13;19.85;;;;;;;14.73;55.35;102030.28;5053180;28;20528;-48
2022/05/05 07:19:19;;;;;;;33.15;20.33;;;;;;;14.77;55.62;102029.38;5053023;28;20106;-52
2022/05/05 07:21:44;;;;;;;35.67;21.88;;;;;;;14.75;56.06;102028.84;5052920;28;20531;-49
2022/05/05 07:24:10;;;;;;;36.05;22.63;;;;;;;14.78;56.91;102033.81;5052745;28;20048;-57
2022/05/05 07:26:35;;;;;;;34.22;22.08;;;;;;;14.86;56.75;102034.25;5052435;28;20492;-50
2022/05/05 07:29:00;;;;;;;35.08;21.63;;;;;;;14.92;56.66;102036.63;5052748;28;20041;-49
2022/05/05 07:31:26;;;;;;;34.50;22.55;;;;;;;15.02;57.08;102037.56;5052684;28;20033;-49
2022/05/05 07:33:51;;;;;;;35.15;23.75;;;;;;;15.08;57.19;102039.13;5052650;28;20036;-49
2022/05/05 07:36:17;;;;;;;36.80;23.92;;;;;;;15.16;56.65;102048.75;5052662;28;20159;-49
2022/05/05 07:38:42;;;;;;;34.88;23.15;;;;;;;15.22;56.15;102048.34;5053162;28;20029;-49
2022/05/05 07:41:07;;;;;;;36.90;24.33;;;;;;;15.32;56.66;102049.28;5053325;28;20021;-51
2022/05/05 07:43:33;;;;;;;35.10;23.88;;;;;;;15.46;57.02;102044.50;5052708;28;20029;-50
2022/05/05 07:45:58;;;;;;;37.72;24.75;;;;;;;15.57;56.49;102042.34;5053085;28;20025;-50
2022/05/05 07:48:23;;;;;;;37.47;23.95;;;;;;;15.64;55.80;102048.34;5053363;28;20021;-49
2022/05/05 07:50:49;;;;;;;37.50;23.98;;;;;;;15.65;56.00;102044.41;5053062;28;20538;-54
2022/05/05 07:53:14;;;;;;;37.03;25.23;;;;;;;15.71;55.91;102050.72;5052680;28;20480;-49
2022/05/05 07:55:40;;;;;;;35.97;24.20;;;;;;;15.77;56.00;102046.66;5053271;28;20024;-49
2022/05/05 07:58:05;;;;;;;35.08;25.35;;;;;;;15.73;56.37;102059.56;5052992;28;20104;-48
2022/05/05 08:00:30;;;;;;;37.25;24.10;;;;;;;15.74;56.31;102061.22;5052897;28;20021;-49
2022/05/05 08:02:56;;;;;;;35.28;24.48;;;;;;;15.86;56.25;102053.19;5051688;28;20049;-49
2022/05/05 08:05:21;;;;;;;40.20;25.75;;;;;;;16.03;56.70;102063.69;5053330;28;20392;-49
2022/05/05 08:07:49;;;;;;;35.80;24.25;;;;;;;16.19;56.26;102063.34;5052919;28;20075;-49
2022/05/05 08:10:18;;;;;;;31.30;21.27;;;;;;;16.21;55.71;102067.47;5053190;28;20440;-50
2022/05/05 08:12:45;;;;;;;31.98;22.05;;;;;;;15.92;56.39;102062.28;5051446;28;20041;-48
2022/05/05 08:15:10;;;;;;;35.45;23.92;;;;;;;15.89;56.82;102071.25;5052998;28;20029;-49
2022/05/05 08:17:36;;;;;;;34.60;22.83;;;;;;;16.08;56.33;102070.28;5051454;28;20112;-49
2022/05/05 08:20:03;;;;;;;33.55;23.30;;;;;;;16.22;56.03;102054.34;5052464;28;20036;-49
2022/05/05 08:22:29;;;;;;;34.08;22.88;;;;;;;16.44;55.62;102066.66;5052629;28;20132;-52
2022/05/05 08:30:22;;;;;;;;;;;;;;;17.10;54.38;102080.94;5053160;28;20541;-49
2022/05/05 08:32:47;;;;;;;33.87;22.23;;;;;;;16.97;53.77;102074.28;5052247;28;19913;-51
2022/05/05 08:35:12;;;;;;;34.25;23.25;;;;;;;17.03;54.73;102079.72;5050984;28;20287;-49
2022/05/05 08:37:38;;;;;;;33.33;23.33;;;;;;;17.10;54.27;102078.16;5052179;28;20025;-49
2022/05/05 08:40:05;;;;;;;35.40;23.30;;;;;;;17.09;53.43;102092.44;5052025;28;20509;-48
2022/05/05 08:42:30;;;;;;;33.33;22.17;;;;;;;16.97;54.00;102079.03;5052114;28;20029;-50
2022/05/05 08:44:58;;;;;;;33.88;22.20;;;;;;;16.87;53.95;102084.88;5051998;28;20021;-51
2022/05/05 08:47:26;;;;;;;32.95;21.33;;;;;;;16.93;53.23;102089.19;5052430;28;20082;-52
2022/05/05 08:49:57;;;;;;;31.77;20.85;;;;;;;17.12;53.66;102087.03;5050869;28;20035;-50
2022/05/05 08:52:24;;;;;;;31.75;21.92;;;;;;;17.12;53.51;102092.63;5052335;28;20050;-49
2022/05/05 08:54:50;;;;;;;35.03;25.38;;;;;;;17.10;54.47;102096.88;5052001;28;20090;-50
2022/05/05 08:57:15;;;;;;;37.92;25.92;;;;;;;17.06;54.80;102093.91;5050771;28;20025;-50
2022/05/05 08:59:41;;;;;;;37.00;25.15;;;;;;;17.21;54.37;102089.06;5050539;28;20052;-50
2022/05/05 09:02:07;;;;;;;35.80;25.08;;;;;;;17.21;54.15;102098.25;5050536;28;20479;-50
2022/05/05 09:04:33;;;;;;;35.33;24.98;;;;;;;17.16;54.50;102098.41;5050962;28;20036;-50
2022/05/05 09:06:59;;;;;;;32.92;22.88;;;;;;;17.15;53.93;102096.75;5055901;28;20029;-49
2022/05/05 09:09:24;;;;;;;37.70;26.08;;;;;;;16.91;54.57;102097.88;5056023;28;20036;-49
2022/05/05 09:12:12;;;;;;;35.55;25.52;;;;;;;16.78;55.43;102099.59;5056334;28;20021;-54
2022/05/05 09:14:47;;;;;;;34.42;24.73;;;;;;;16.77;55.48;102103.53;5056236;28;20110;-49
2022/05/05 09:17:17;;;;;;;35.20;25.10;;;;;;;16.82;55.28;102085.81;5054807;28;20353;-49
2022/05/05 09:19:46;;;;;;;34.88;24.45;;;;;;;16.89;55.15;102105.78;5055901;28;20494;-48
2022/05/05 09:22:12;;;;;;;33.33;22.02;;;;;;;17.18;54.11;102104.50;5055619;28;20032;-48
2022/05/05 09:27:35;;;;;;;35.80;24.63;;;;;;;17.51;53.42;102104.16;5055618;28;20052;-48
2022/05/05 09:30:14;;;;;;;33.15;23.38;;;;;;;17.57;53.32;102105.63;5055807;28;20024;-54
2022/05/05 09:32:43;;;;;;;33.00;23.45;;;;;;;17.76;52.33;102104.56;5055835;28;20025;-50
2022/05/05 09:35:18;;;;;;;36.05;23.23;;;;;;;17.97;52.40;102102.03;5055284;28;20017;-49
2022/05/05 09:37:50;;;;;;;32.83;22.55;;;;;;;18.14;50.81;102106.00;5055118;28;20032;-52
2022/05/05 09:40:20;;;;;;;30.70;20.73;;;;;;;18.32;49.98;102109.66;5055929;28;20436;-55
2022/05/05 09:42:50;;;;;;;32.60;21.67;;;;;;;18.54;49.09;102109.47;5055375;28;20074;-52
2022/05/05 09:45:36;;;;;;;30.27;19.55;;;;;;;18.83;48.31;102113.56;5054856;28;20078;-53
2022/05/05 09:48:13;;;;;;;29.55;19.77;;;;;;;18.93;48.72;102115.25;5055254;28;20044;-53
2022/05/05 09:50:38;;;;;;;30.50;19.67;;;;;;;19.11;47.61;102106.78;5055395;28;20097;-53
2022/05/05 09:59:14;;;;;;;32.13;23.05;;;;;;;19.42;47.26;102112.13;4994185;28;20397;-53
2022/05/05 10:01:41;;;;;;;32.55;23.42;;;;;;;19.47;46.57;102103.50;5025154;28;20049;-53
2022/05/05 10:04:10;;;;;;;32.15;23.55;;;;;;;19.50;47.15;102116.06;5054938;28;20025;-53
2022/05/05 10:06:43;;;;;;;31.88;22.55;;;;;;;19.43;47.33;102116.56;5055251;28;20033;-53
2022/05/05 10:09:16;;;;;;;33.22;23.60;;;;;;;19.35;47.05;102114.63;5054819;28;20033;-52
2022/05/05 10:11:41;;;;;;;33.13;23.65;;;;;;;19.53;46.91;102117.38;5054415;28;20025;-52
2022/05/05 10:14:12;;;;;;;33.58;23.63;;;;;;;19.51;46.62;102112.06;5054558;28;20079;-53
2022/05/05 10:16:39;;;;;;;32.28;23.92;;;;;;;19.75;45.59;102110.66;5054252;28;20078;-53
2022/05/05 10:19:04;;;;;;;33.35;24.05;;;;;;;19.99;45.60;102112.84;5054333;28;20120;-52
2022/05/05 10:21:59;;;;;;;32.60;23.88;;;;;;;20.09;46.46;102112.44;5054188;28;20068;-51
2022/05/05 10:24:50;;;;;;;33.28;25.00;;;;;;;20.27;46.41;102113.13;5054132;28;20056;-52
2022/05/05 10:27:16;;;;;;;35.00;24.75;;;;;;;20.55;44.80;102106.94;5053785;28;20067;-52
2022/05/05 10:29:43;;;;;;;34.72;25.50;;;;;;;20.21;44.39;102108.88;5054060;28;20028;-52
2022/05/05 10:32:15;;;;;;;35.08;26.85;;;;;;;19.83;45.44;102090.13;5054339;28;20025;-52
2022/05/05 10:34:45;;;;;;;36.35;26.17;;;;;;;19.53;46.44;102100.53;5054438;28;20112;-53
2022/05/05 10:37:12;;;;;;;35.58;28.50;;;;;;;19.41;46.12;102099.25;5054210;28;20033;-52
2022/05/05 10:40:01;;;;;;;34.20;25.95;;;;;;;19.71;46.55;102107.69;5054030;28;20163;-52
2022/05/05 10:42:29;;;;;;;37.08;25.90;;;;;;;19.99;45.29;102112.00;5054050;28;20025;-52
2022/05/05 10:45:13;;;;;;;34.63;26.67;;;;;;;20.17;45.11;102116.34;5052398;28;20029;-52
2022/05/05 10:48:01;;;;;;;35.88;27.63;;;;;;;19.88;44.82;102111.59;5053932;28;20098;-53
2022/05/05 10:50:27;;;;;;;37.22;27.73;;;;;;;19.82;45.08;102110.94;5054171;28;20080;-49
2022/05/05 10:52:53;;;;;;;35.95;27.83;;;;;;;20.11;44.63;102109.28;5054097;28;20039;-52
2022/05/05 10:55:26;;;;;;;36.72;27.40;;;;;;;20.28;44.23;102108.34;5052811;28;20056;-53
2022/05/05 10:57:51;;;;;;;35.90;28.33;;;;;;;20.41;43.58;102112.84;5054070;28;20022;-53
2022/05/05 11:00:22;;;;;;;38.22;27.65;;;;;;;20.56;43.04;102110.59;5053714;28;20024;-53
2022/05/05 11:03:03;;;;;;;37.00;27.90;;;;;;;20.84;43.24;102108.03;5052347;28;20511;-52
2022/05/05 11:05:35;;;;;;;37.28;28.75;;;;;;;20.88;41.95;102106.19;5052705;28;20341;-52
2022/05/05 11:08:07;;;;;;;37.53;30.70;;;;;;;21.15;42.02;102103.09;5053983;28;20051;-52
2022/05/05 11:10:48;;;;;;;40.55;32.45;;;;;;;21.24;42.44;102112.25;5053773;28;20033;-53
2022/05/05 11:13:38;;;;;;;39.05;32.60;;;;;;;21.35;41.90;102115.44;5053700;28;20029;-54
2022/05/05 11:22:19;;;;;;;37.20;30.02;;;;;;;20.69;41.64;102117.91;5054139;28;20035;-52
2022/05/05 11:24:46;;;;;;;36.95;31.30;;;;;;;20.83;41.99;102109.19;5054093;28;20029;-52
2022/05/05 11:27:13;;;;;;;37.45;31.95;;;;;;;20.96;41.65;102112.91;5053677;28;20152;-52
2022/05/05 11:29:39;;;;;;;39.55;33.28;;;;;;;20.39;41.70;102105.94;5053495;28;20222;-52
2022/05/05 11:32:05;;;;;;;33.10;27.30;;;;;;;20.29;41.23;102111.97;5053489;28;20104;-53
2022/05/05 11:34:40;;;;;;;35.20;27.20;;;;;;;20.49;41.89;102113.97;5053495;28;20464;-52
2022/05/05 11:37:07;;;;;;;33.15;27.60;;;;;;;20.65;41.33;102104.88;5053322;28;20107;-52
2022/05/05 11:39:34;;;;;;;34.83;28.63;;;;;;;20.93;41.01;102093.06;5052865;28;20039;-52
2022/05/05 11:42:10;;;;;;;36.10;28.52;;;;;;;21.28;41.01;102098.31;5053023;28;20025;-52
2022/05/05 11:44:41;;;;;;;37.22;27.67;;;;;;;21.36;40.58;102103.00;5052847;28;20111;-52
2022/05/05 11:47:13;;;;;;;34.55;26.13;;;;;;;21.70;39.79;102102.94;5052977;28;20048;-52
2022/05/05 11:49:43;;;;;;;35.33;26.52;;;;;;;21.88;39.43;102111.94;5053042;28;20159;-52
2022/05/05 11:52:10;;;;;;;33.60;26.98;;;;;;;21.94;38.39;102108.53;5053552;28;20033;-51
2022/05/05 11:54:36;;;;;;;33.42;25.95;;;;;;;21.96;39.00;102106.19;5052956;28;20086;-51
2022/05/05 11:57:01;;;;;;;33.10;24.73;;;;;;;22.00;38.84;102105.50;5051702;28;20464;-50
2022/05/05 12:02:20;;;;;;;30.30;21.55;;;;;;;21.58;39.53;102107.38;5052111;28;20095;-50